createdAt,value
2018-02-16T00:01:53.189Z,6.66
2018-02-16T00:04:21.564Z,6.86
2018-02-16T00:06:49.944Z,7.10
2018-02-16T00:09:18.333Z,6.41
2018-02-16T00:11:46.806Z,6.79
2018-02-16T00:14:15.897Z,6.67
2018-02-16T00:16:44.489Z,6.78
2018-02-16T00:19:12.842Z,6.79
2018-02-16T00:21:41.142Z,6.55
2018-02-16T00:24:09.530Z,6.90
2018-02-16T00:26:37.793Z,7.03
2018-02-16T00:29:06.578Z,6.84
2018-02-16T00:31:35.094Z,6.75
2018-02-16T00:34:03.638Z,6.92
2018-02-16T00:36:32.003Z,6.95
2018-02-16T00:39:00.490Z,6.77
2018-02-16T00:41:29.085Z,6.75
2018-02-16T00:43:57.462Z,6.99
2018-02-16T00:46:25.834Z,7.10
2018-02-16T00:48:54.421Z,7.15
2018-02-16T00:51:22.783Z,6.68
2018-02-16T00:53:51.176Z,6.70
2018-02-16T00:56:19.553Z,6.34
2018-02-16T00:58:48.032Z,6.28
2018-02-16T01:01:16.518Z,6.52
2018-02-16T01:03:44.898Z,6.55
2018-02-16T01:06:13.477Z,6.50
2018-02-16T01:08:41.956Z,6.78
2018-02-16T01:11:10.228Z,6.81
2018-02-16T01:13:38.401Z,7.25
2018-02-16T01:16:06.577Z,7.42
2018-02-16T01:18:35.308Z,6.94
2018-02-16T01:21:03.589Z,7.59
2018-02-16T01:23:32.121Z,7.84
2018-02-16T01:26:00.594Z,6.77
2018-02-16T01:28:29.086Z,6.23
2018-02-16T01:30:57.670Z,6.07
2018-02-16T01:33:26.136Z,5.97
2018-02-16T01:35:54.328Z,6.34
2018-02-16T01:38:22.800Z,6.50
2018-02-16T01:40:51.082Z,6.83
2018-02-16T01:43:19.465Z,6.27
2018-02-16T01:45:48.757Z,6.33
2018-02-16T01:48:17.443Z,6.06
2018-02-16T01:50:45.816Z,6.41
2018-02-16T01:53:14.402Z,6.35
2018-02-16T01:55:42.678Z,5.75
2018-02-16T01:58:10.870Z,5.93
2018-02-16T02:00:39.586Z,6.13
2018-02-16T02:03:07.819Z,6.18
2018-02-16T02:05:36.379Z,6.25
2018-02-16T02:08:04.562Z,6.23
2018-02-16T02:10:32.946Z,6.60
2018-02-16T02:13:01.229Z,6.35
2018-02-16T02:15:29.402Z,6.39
2018-02-16T02:17:57.865Z,6.28
2018-02-16T02:20:26.250Z,6.46
2018-02-16T02:22:54.736Z,5.63
2018-02-16T02:25:23.110Z,5.74
2018-02-16T02:27:51.593Z,5.84
2018-02-16T02:30:20.173Z,6.07
2018-02-16T02:32:48.970Z,6.28
2018-02-16T02:35:17.546Z,6.30
2018-02-16T02:37:46.697Z,6.41
2018-02-16T02:40:15.330Z,6.26
2018-02-16T02:42:43.805Z,6.29
2018-02-16T02:45:13.417Z,6.16
2018-02-16T02:47:41.890Z,6.11
2018-02-16T02:50:10.282Z,5.83
2018-02-16T02:52:38.649Z,5.91
2018-02-16T02:55:07.029Z,5.98
2018-02-16T02:57:35.510Z,6.09
2018-02-16T03:00:03.718Z,5.93
2018-02-16T03:02:32.062Z,6.00
2018-02-16T03:05:00.262Z,5.99
2018-02-16T03:07:28.614Z,6.32
2018-02-16T03:09:57.201Z,6.89
2018-02-16T03:12:25.574Z,6.22
2018-02-16T03:14:53.850Z,6.19
2018-02-16T03:17:22.369Z,6.60
2018-02-16T03:19:50.871Z,6.33
2018-02-16T03:22:19.175Z,6.64
2018-02-16T03:24:47.461Z,6.42
2018-02-16T03:27:15.843Z,6.74
2018-02-16T03:29:44.421Z,6.52
2018-02-16T03:32:13.010Z,6.45
2018-02-16T03:34:41.594Z,6.24
2018-02-16T03:37:10.074Z,6.54
2018-02-16T03:39:38.449Z,6.50
2018-02-16T03:42:07.036Z,6.85
2018-02-16T03:44:35.405Z,6.52
2018-02-16T03:47:03.665Z,6.82
2018-02-16T03:49:32.066Z,6.76
2018-02-16T03:52:00.325Z,6.65
2018-02-16T03:54:28.612Z,6.81
2018-02-16T03:56:57.203Z,7.26
2018-02-16T03:59:25.313Z,7.27
2018-02-16T04:01:53.645Z,7.05
2018-02-16T04:04:21.917Z,7.29
2018-02-16T04:06:50.303Z,7.45
2018-02-16T04:09:18.973Z,7.37
2018-02-16T04:11:47.266Z,7.02
2018-02-16T04:14:15.945Z,7.20
2018-02-16T04:16:44.617Z,7.14
2018-02-16T04:19:13.480Z,7.46
2018-02-16T04:21:41.808Z,7.61
2018-02-16T04:24:10.381Z,7.16
2018-02-16T04:26:38.566Z,7.32
2018-02-16T04:29:07.142Z,7.53
2018-02-16T04:31:35.619Z,7.82
2018-02-16T04:34:03.893Z,7.24
2018-02-16T04:36:32.886Z,7.50
2018-02-16T04:39:01.161Z,7.32
2018-02-16T04:41:29.442Z,7.61
2018-02-16T04:43:57.918Z,7.18
2018-02-16T04:46:26.398Z,6.71
2018-02-16T04:48:55.028Z,6.73
2018-02-16T04:51:23.158Z,6.84
2018-02-16T04:53:51.533Z,7.56
2018-02-16T04:56:20.009Z,7.90
2018-02-16T04:58:48.373Z,8.02
2018-02-16T05:01:16.870Z,7.76
2018-02-16T05:03:45.254Z,8.10
2018-02-16T05:06:13.713Z,8.12
2018-02-16T05:08:42.626Z,7.33
2018-02-16T05:11:11.304Z,7.78
2018-02-16T05:13:39.891Z,8.02
2018-02-16T05:16:08.109Z,7.91
2018-02-16T05:18:36.541Z,7.08
2018-02-16T05:21:04.984Z,6.84
2018-02-16T05:23:33.506Z,7.16
2018-02-16T05:26:01.694Z,7.17
2018-02-16T05:28:30.155Z,7.19
2018-02-16T05:30:58.583Z,6.81
2018-02-16T05:33:27.017Z,7.30
2018-02-16T05:35:55.626Z,7.06
2018-02-16T05:38:24.385Z,7.59
2018-02-16T05:40:52.924Z,7.63
2018-02-16T05:43:21.652Z,7.71
2018-02-16T05:45:50.137Z,7.20
2018-02-16T05:48:19.031Z,7.04
2018-02-16T05:50:48.623Z,6.90
2018-02-16T05:53:17.108Z,6.50
2018-02-16T05:55:45.902Z,6.42
2018-02-16T05:58:14.159Z,6.19
2018-02-16T06:00:42.660Z,6.21
2018-02-16T06:03:12.094Z,6.87
2018-02-16T06:05:40.643Z,7.21
2018-02-16T06:08:09.077Z,7.33
2018-02-16T06:10:37.017Z,7.35
2018-02-16T06:13:04.895Z,6.74
2018-02-16T06:15:32.825Z,6.75
2018-02-16T06:18:00.780Z,6.73
2018-02-16T06:20:29.276Z,6.89
2018-02-16T06:22:57.836Z,6.84
2018-02-16T06:25:26.343Z,7.20
2018-02-16T06:27:54.712Z,7.27
2018-02-16T06:30:23.085Z,8.14
2018-02-16T06:32:51.575Z,8.31
2018-02-16T06:35:20.172Z,8.55
2018-02-16T06:37:48.430Z,8.73
2018-02-16T06:40:17.020Z,8.73
2018-02-16T06:42:45.270Z,8.50
2018-02-16T06:45:13.778Z,9.14
2018-02-16T06:47:42.259Z,8.92
2018-02-16T06:50:10.630Z,8.69
2018-02-16T06:52:38.806Z,8.62
2018-02-16T06:55:07.119Z,8.83
2018-02-16T06:57:35.658Z,8.96
2018-02-16T07:00:04.241Z,8.42
2018-02-16T07:02:32.435Z,9.18
2018-02-16T07:05:00.892Z,9.26
2018-02-16T07:07:29.211Z,9.58
2018-02-16T07:09:57.848Z,9.36
2018-02-16T07:12:26.437Z,9.47
2018-02-16T07:14:54.756Z,8.81
2018-02-16T07:17:23.401Z,8.86
2018-02-16T07:19:51.669Z,9.30
2018-02-16T07:22:20.058Z,9.13
2018-02-16T07:24:48.432Z,9.13
2018-02-16T07:27:16.706Z,9.49
2018-02-16T07:29:45.294Z,9.92
2018-02-16T07:32:13.601Z,9.55
2018-02-16T07:34:41.841Z,10.04
2018-02-16T07:37:10.203Z,10.31
2018-02-16T07:39:38.720Z,10.57
2018-02-16T07:42:07.506Z,11.07
2018-02-16T07:44:35.800Z,11.57
2018-02-16T07:47:04.141Z,11.96
2018-02-16T07:49:32.341Z,12.73
2018-02-16T07:52:00.897Z,14.16
2018-02-16T07:54:29.197Z,13.97
2018-02-16T07:56:57.146Z,14.93
2018-02-16T07:59:25.153Z,14.89
2018-02-16T08:01:53.163Z,15.47
2018-02-16T08:04:21.139Z,15.47
2018-02-16T08:06:49.150Z,15.58
2018-02-16T08:09:17.198Z,15.05
2018-02-16T08:11:45.171Z,15.60
2018-02-16T08:14:13.115Z,16.42
2018-02-16T08:16:41.066Z,16.10
2018-02-16T08:19:09.053Z,16.89
2018-02-16T08:21:36.974Z,16.72
2018-02-16T08:24:04.918Z,16.56
2018-02-16T08:26:32.889Z,17.11
2018-02-16T08:29:00.872Z,16.92
2018-02-16T08:31:28.832Z,17.80
2018-02-16T08:33:56.820Z,17.38
2018-02-16T08:36:24.846Z,17.13
2018-02-16T08:38:52.817Z,18.05
2018-02-16T08:41:20.786Z,18.77
2018-02-16T08:43:49.304Z,18.85
2018-02-16T08:46:17.234Z,18.98
2018-02-16T08:48:45.169Z,19.37
2018-02-16T08:51:13.122Z,18.34
2018-02-16T08:53:41.167Z,18.30
2018-02-16T08:56:09.087Z,18.64
2018-02-16T08:58:37.007Z,19.07
2018-02-16T09:01:04.967Z,18.90
2018-02-16T09:03:32.917Z,18.76
2018-02-16T09:06:00.835Z,19.28
2018-02-16T09:08:28.781Z,19.20
2018-02-16T09:10:56.758Z,19.87
2018-02-16T09:13:24.724Z,20.79
2018-02-16T09:15:52.728Z,21.45
2018-02-16T09:18:20.713Z,21.05
2018-02-16T09:20:48.689Z,20.46
2018-02-16T09:23:16.597Z,19.65
2018-02-16T09:25:44.512Z,20.50
2018-02-16T09:28:12.522Z,21.18
2018-02-16T09:30:40.466Z,21.11
2018-02-16T09:33:08.479Z,21.17
2018-02-16T09:35:37.658Z,21.06
2018-02-16T09:38:05.613Z,20.39
2018-02-16T09:40:33.572Z,20.79
2018-02-16T09:43:01.607Z,20.77
2018-02-16T09:45:30.034Z,20.48
2018-02-16T09:47:57.992Z,21.01
2018-02-16T09:50:25.943Z,21.63
2018-02-16T09:52:53.919Z,21.87
2018-02-16T09:55:21.887Z,21.58
2018-02-16T09:57:49.923Z,22.49
2018-02-16T10:00:17.907Z,22.82
2018-02-16T10:02:45.891Z,22.79
2018-02-16T10:05:13.910Z,22.89
2018-02-16T10:07:41.855Z,22.50
2018-02-16T10:10:09.858Z,22.40
2018-02-16T10:12:37.870Z,22.90
2018-02-16T10:15:05.976Z,22.27
2018-02-16T10:17:33.941Z,22.04
2018-02-16T10:20:01.960Z,22.39
2018-02-16T10:22:29.988Z,22.57
2018-02-16T10:24:58.037Z,23.22
2018-02-16T10:27:26.061Z,23.08
2018-02-16T10:29:54.084Z,23.51
2018-02-16T10:32:22.117Z,23.76
2018-02-16T10:34:50.100Z,23.62
2018-02-16T10:37:18.141Z,23.75
2018-02-16T10:39:46.167Z,24.11
2018-02-16T10:42:14.168Z,23.46
2018-02-16T10:44:42.164Z,23.58
2018-02-16T10:47:10.632Z,24.49
2018-02-16T10:49:38.590Z,23.94
2018-02-16T10:52:06.602Z,24.11
2018-02-16T10:54:34.559Z,25.34
2018-02-16T10:57:02.545Z,25.14
2018-02-16T10:59:30.588Z,23.66
2018-02-16T11:02:04.180Z,24.41
2018-02-16T11:04:37.743Z,24.96
2018-02-16T11:07:11.304Z,24.90
2018-02-16T11:09:39.925Z,25.20
2018-02-16T11:12:07.902Z,25.37
2018-02-16T11:14:35.910Z,23.96
2018-02-16T11:17:03.862Z,23.85
2018-02-16T11:19:31.824Z,24.31
2018-02-16T11:21:59.811Z,25.05
2018-02-16T11:24:27.760Z,25.34
2018-02-16T11:26:55.765Z,25.42
2018-02-16T11:29:23.706Z,25.37
2018-02-16T11:31:51.726Z,25.15
2018-02-16T11:34:19.684Z,24.68
2018-02-16T11:36:47.614Z,24.60
2018-02-16T11:39:15.561Z,24.07
2018-02-16T11:41:43.569Z,25.08
2018-02-16T11:44:11.502Z,25.36
2018-02-16T11:46:39.461Z,25.02
2018-02-16T11:49:07.986Z,25.57
2018-02-16T11:51:35.898Z,26.82
2018-02-16T11:54:03.894Z,26.67
2018-02-16T11:56:31.909Z,25.86
2018-02-16T11:58:59.785Z,23.81
2018-02-16T12:01:27.784Z,24.68
2018-02-16T12:03:55.750Z,25.09
2018-02-16T12:06:23.717Z,26.79
2018-02-16T12:08:51.718Z,24.01
2018-02-16T12:11:19.741Z,24.21
2018-02-16T12:13:47.682Z,25.10
2018-02-16T12:16:15.592Z,25.86
2018-02-16T12:18:43.592Z,26.29
2018-02-16T12:21:11.555Z,26.42
2018-02-16T12:23:39.578Z,25.45
2018-02-16T12:26:07.534Z,25.58
2018-02-16T12:28:35.569Z,26.09
2018-02-16T12:31:03.634Z,27.16
2018-02-16T12:33:31.554Z,26.06
2018-02-16T12:35:59.520Z,26.51
2018-02-16T12:38:27.538Z,25.88
2018-02-16T12:40:55.554Z,26.02
2018-02-16T12:43:23.594Z,25.47
2018-02-16T12:45:51.567Z,25.99
2018-02-16T12:48:19.520Z,25.40
2018-02-16T12:50:47.809Z,24.51
2018-02-16T12:53:15.798Z,26.13
2018-02-16T12:55:43.807Z,25.35
2018-02-16T12:58:11.777Z,25.40
2018-02-16T13:00:39.764Z,25.59
2018-02-16T13:03:07.796Z,25.41
2018-02-16T13:05:35.749Z,25.71
2018-02-16T13:08:03.722Z,25.55
2018-02-16T13:10:31.704Z,25.66
2018-02-16T13:12:59.661Z,27.04
2018-02-16T13:15:27.631Z,26.39
2018-02-16T13:17:55.590Z,26.64
2018-02-16T13:20:23.515Z,25.16
2018-02-16T13:22:51.496Z,26.78
2018-02-16T13:25:19.514Z,27.02
2018-02-16T13:27:47.522Z,26.32
2018-02-16T13:30:20.201Z,25.80
2018-02-16T13:32:48.165Z,24.66
2018-02-16T13:35:16.197Z,24.69
2018-02-16T13:37:44.286Z,26.08
2018-02-16T13:40:12.378Z,26.77
2018-02-16T13:42:40.391Z,26.55
2018-02-16T13:45:08.395Z,26.10
2018-02-16T13:47:37.382Z,25.37
2018-02-16T13:50:05.423Z,22.92
2018-02-16T13:52:33.778Z,23.50
2018-02-16T13:55:01.737Z,23.91
2018-02-16T13:57:29.765Z,23.96
2018-02-16T13:59:57.682Z,23.94
2018-02-16T14:02:25.681Z,23.41
2018-02-16T14:04:53.661Z,24.26
2018-02-16T14:07:21.595Z,24.69
2018-02-16T14:09:49.509Z,24.41
2018-02-16T14:12:17.507Z,24.47
2018-02-16T14:14:45.505Z,24.23
2018-02-16T14:17:13.637Z,24.24
2018-02-16T14:19:41.642Z,24.10
2018-02-16T14:22:09.572Z,23.80
2018-02-16T14:24:37.546Z,23.04
2018-02-16T14:27:05.573Z,22.49
2018-02-16T14:29:33.488Z,22.29
2018-02-16T14:32:01.476Z,22.13
2018-02-16T14:34:29.524Z,21.08
2018-02-16T14:36:57.497Z,19.30
2018-02-16T14:39:25.583Z,20.79
2018-02-16T14:41:53.599Z,21.55
2018-02-16T14:44:21.616Z,21.26
2018-02-16T14:46:49.526Z,21.14
2018-02-16T14:49:17.503Z,20.69
2018-02-16T14:51:45.507Z,21.03
2018-02-16T14:54:13.890Z,20.45
2018-02-16T14:56:41.882Z,19.12
2018-02-16T14:59:09.828Z,18.03
2018-02-16T15:01:37.835Z,17.33
2018-02-16T15:04:05.839Z,18.22
2018-02-16T15:06:33.910Z,17.98
2018-02-16T15:09:01.854Z,17.78
2018-02-16T15:11:29.758Z,15.83
2018-02-16T15:13:57.766Z,15.91
2018-02-16T15:16:25.754Z,14.92
2018-02-16T15:18:53.744Z,15.30
2018-02-16T15:21:21.835Z,15.22
2018-02-16T15:23:49.787Z,14.65
2018-02-16T15:26:17.794Z,14.73
2018-02-16T15:28:46.074Z,14.44
2018-02-16T15:31:14.219Z,13.74
2018-02-16T15:33:42.167Z,13.94
2018-02-16T15:36:10.097Z,13.50
2018-02-16T15:38:38.110Z,14.06
2018-02-16T15:41:06.122Z,14.46
2018-02-16T15:43:35.001Z,13.88
2018-02-16T15:46:03.022Z,13.27
2018-02-16T15:48:31.464Z,12.91
2018-02-16T15:50:59.470Z,12.28
2018-02-16T15:53:27.409Z,12.63
2018-02-16T15:55:55.578Z,13.08
2018-02-16T15:58:23.542Z,13.41
2018-02-16T16:00:51.561Z,13.94
2018-02-16T16:03:20.676Z,12.70
2018-02-16T16:08:38.720Z,11.81
2018-02-16T16:11:06.689Z,12.30
2018-02-16T16:13:34.653Z,12.29
2018-02-16T16:16:02.680Z,12.53
2018-02-16T16:18:30.599Z,13.18
2018-02-16T16:20:59.314Z,12.84
2018-02-16T16:23:27.363Z,12.47
2018-02-16T16:25:55.313Z,13.00
2018-02-16T16:28:23.331Z,12.22
2018-02-16T16:30:51.257Z,12.39
2018-02-16T16:33:19.171Z,12.02
2018-02-16T16:35:47.167Z,12.25
2018-02-16T16:38:15.130Z,12.23
2018-02-16T16:40:43.052Z,12.64
2018-02-16T16:43:11.072Z,12.42
2018-02-16T16:45:39.041Z,12.99
2018-02-16T16:48:06.910Z,12.45
2018-02-16T16:50:34.934Z,12.24
2018-02-16T16:53:02.854Z,12.77
2018-02-16T16:55:30.839Z,12.83
2018-02-16T16:57:59.053Z,11.89
2018-02-16T17:00:27.078Z,11.93
2018-02-16T17:02:55.051Z,12.21
2018-02-16T17:05:23.014Z,10.97
2018-02-16T17:07:51.981Z,11.28
2018-02-16T17:10:20.106Z,10.92
2018-02-16T17:12:48.133Z,10.94
2018-02-16T17:15:16.064Z,11.18
2018-02-16T17:17:44.062Z,11.12
2018-02-16T17:20:12.074Z,10.43
2018-02-16T17:22:40.714Z,10.62
2018-02-16T17:25:08.649Z,10.30
2018-02-16T17:27:36.643Z,10.43
2018-02-16T17:30:04.723Z,10.34
2018-02-16T17:32:32.718Z,10.24
2018-02-16T17:35:00.629Z,10.39
2018-02-16T17:37:28.651Z,10.35
2018-02-16T17:39:56.625Z,10.36
2018-02-16T17:42:24.506Z,10.52
2018-02-16T17:44:52.499Z,10.68
2018-02-16T17:47:20.426Z,10.66
2018-02-16T17:49:48.394Z,10.84
2018-02-16T17:52:16.398Z,10.20
2018-02-16T17:54:44.369Z,9.77
2018-02-16T17:57:12.517Z,10.22
2018-02-16T17:59:41.079Z,9.66
2018-02-16T18:02:09.117Z,9.25
2018-02-16T18:04:37.057Z,9.34
2018-02-16T18:07:05.010Z,9.40
2018-02-16T18:09:32.898Z,10.07
2018-02-16T18:12:00.960Z,10.00
2018-02-16T18:14:28.871Z,9.52
2018-02-16T18:16:56.800Z,9.19
2018-02-16T18:19:24.783Z,9.09
2018-02-16T18:21:52.857Z,9.29
2018-02-16T18:24:20.794Z,9.35
2018-02-16T18:26:48.818Z,10.04
2018-02-16T18:29:16.798Z,10.03
2018-02-16T18:31:44.772Z,10.45
2018-02-16T18:34:12.846Z,10.58
2018-02-16T18:36:40.829Z,10.32
2018-02-16T18:39:08.821Z,10.38
2018-02-16T18:41:36.850Z,10.66
2018-02-16T18:44:04.908Z,10.95
2018-02-16T18:46:32.893Z,11.27
2018-02-16T18:49:00.905Z,11.49
2018-02-16T18:51:28.856Z,11.53
2018-02-16T18:53:56.874Z,11.40
2018-02-16T18:56:24.844Z,11.32
2018-02-16T18:58:52.860Z,11.34
2018-02-16T19:01:20.962Z,10.34
2018-02-16T19:03:48.956Z,10.78
2018-02-16T19:06:16.951Z,10.97
2018-02-16T19:08:44.862Z,11.14
2018-02-16T19:11:12.801Z,11.08
2018-02-16T19:13:40.779Z,11.02
2018-02-16T19:16:08.748Z,10.97
2018-02-16T19:18:36.697Z,10.82
2018-02-16T19:21:04.667Z,10.32
2018-02-16T19:23:32.693Z,10.69
2018-02-16T19:26:00.643Z,10.73
2018-02-16T19:28:28.594Z,10.73
2018-02-16T19:30:56.521Z,10.84
2018-02-16T19:33:24.474Z,10.79
2018-02-16T19:35:52.423Z,10.61
2018-02-16T19:38:20.347Z,10.61
2018-02-16T19:40:48.277Z,10.66
2018-02-16T19:43:16.270Z,10.52
2018-02-16T19:45:44.251Z,10.56
2018-02-16T19:48:12.202Z,10.06
2018-02-16T19:50:40.190Z,9.36
2018-02-16T19:53:08.251Z,9.20
2018-02-16T19:55:37.272Z,8.31
2018-02-16T19:58:05.286Z,8.25
2018-02-16T20:00:33.273Z,8.20
2018-02-16T20:03:01.732Z,8.57
2018-02-16T20:05:29.775Z,8.47
2018-02-16T20:07:57.749Z,9.13
2018-02-16T20:10:25.774Z,9.31
2018-02-16T20:12:53.697Z,9.29
2018-02-16T20:15:21.675Z,9.42
2018-02-16T20:17:49.635Z,9.31
2018-02-16T20:20:17.557Z,9.61
2018-02-16T20:22:45.492Z,9.69
2018-02-16T20:25:13.523Z,9.33
2018-02-16T20:27:41.486Z,9.23
2018-02-16T20:30:09.503Z,9.26
2018-02-16T20:32:37.570Z,9.51
2018-02-16T20:35:05.523Z,9.51
2018-02-16T20:37:33.523Z,9.53
2018-02-16T20:40:01.520Z,9.46
2018-02-16T20:42:29.458Z,9.42
2018-02-16T20:44:57.454Z,9.40
2018-02-16T20:47:25.423Z,9.22
2018-02-16T20:49:53.406Z,9.37
2018-02-16T20:52:21.267Z,9.36
2018-02-16T20:54:49.218Z,9.37
2018-02-16T20:57:17.212Z,9.20
2018-02-16T20:59:45.133Z,9.05
2018-02-16T21:02:13.126Z,9.09
2018-02-16T21:04:41.538Z,8.81
2018-02-16T21:07:09.571Z,8.95
2018-02-16T21:09:37.604Z,9.01
2018-02-16T21:12:05.581Z,9.04
2018-02-16T21:14:33.563Z,8.95
2018-02-16T21:17:01.529Z,8.91
2018-02-16T21:19:29.441Z,8.92
2018-02-16T21:21:57.353Z,8.87
2018-02-16T21:24:25.331Z,8.87
2018-02-16T21:26:53.292Z,8.85
2018-02-16T21:29:21.222Z,8.77
2018-02-16T21:31:49.189Z,8.49
2018-02-16T21:34:17.078Z,7.99
2018-02-16T21:36:45.086Z,8.27
2018-02-16T21:39:13.758Z,8.38
2018-02-16T21:41:42.288Z,8.35
2018-02-16T21:44:10.870Z,8.27
2018-02-16T21:46:39.245Z,8.18
2018-02-16T21:49:07.532Z,8.29
2018-02-16T21:51:35.898Z,8.25
2018-02-16T21:54:04.278Z,8.35
2018-02-16T21:56:32.554Z,8.34
2018-02-16T21:59:01.142Z,8.35
2018-02-16T22:01:29.217Z,8.17
2018-02-16T22:03:57.800Z,8.17
2018-02-16T22:06:26.074Z,8.10
2018-02-16T22:08:54.344Z,8.22
2018-02-16T22:11:22.936Z,8.19
2018-02-16T22:13:51.695Z,8.10
2018-02-16T22:16:20.097Z,8.10
2018-02-16T22:18:48.577Z,7.67
2018-02-16T22:21:16.946Z,6.98
2018-02-16T22:23:45.331Z,7.21
2018-02-16T22:26:13.777Z,7.45
2018-02-16T22:28:42.190Z,7.70
2018-02-16T22:31:10.769Z,7.81
2018-02-16T22:33:39.141Z,7.93
2018-02-16T22:36:07.527Z,8.02
2018-02-16T22:38:35.798Z,8.02
2018-02-16T22:41:04.287Z,7.99
2018-02-16T22:43:32.465Z,7.95
2018-02-16T22:46:01.038Z,7.84
2018-02-16T22:48:29.226Z,7.81
2018-02-16T22:50:57.592Z,7.71
2018-02-16T22:53:25.879Z,7.78
2018-02-16T22:55:54.445Z,7.85
2018-02-16T22:58:22.806Z,7.92
2018-02-16T23:00:51.208Z,7.81
2018-02-16T23:03:19.781Z,7.72
2018-02-16T23:05:47.955Z,7.69
2018-02-16T23:08:16.860Z,7.62
2018-02-16T23:10:45.225Z,7.52
2018-02-16T23:13:13.222Z,7.47
2018-02-16T23:15:41.176Z,7.42
2018-02-16T23:18:09.211Z,7.45
2018-02-16T23:20:37.227Z,7.51
2018-02-16T23:23:05.165Z,7.35
2018-02-16T23:25:33.138Z,7.22
2018-02-16T23:28:01.124Z,7.38
2018-02-16T23:30:29.098Z,7.37
2018-02-16T23:32:57.057Z,7.40
2018-02-16T23:35:25.079Z,7.39
2018-02-16T23:37:53.067Z,7.32
2018-02-16T23:40:21.008Z,7.26
2018-02-16T23:42:48.948Z,7.36
2018-02-16T23:45:16.865Z,7.32
2018-02-16T23:47:44.782Z,6.76
2018-02-16T23:50:12.721Z,7.07
2018-02-16T23:52:40.636Z,7.10
2018-02-16T23:55:08.574Z,7.04
2018-02-16T23:57:36.557Z,7.14
